createdAt,value
2022-11-19T00:00:38.949Z,94655.69
2022-11-19T00:03:08.448Z,94638.38
2022-11-19T00:05:40.969Z,94649.25
2022-11-19T00:08:11.846Z,94640.09
2022-11-19T00:10:41.897Z,94640.84
2022-11-19T00:13:10.971Z,94640.81
2022-11-19T00:15:42.596Z,94635.09
2022-11-19T00:18:12.078Z,94640.94
2022-11-19T00:20:41.519Z,94640.38
2022-11-19T00:23:13.467Z,94638.47
2022-11-19T00:25:42.995Z,94637.88
2022-11-19T00:28:12.468Z,94639.41
2022-11-19T00:30:50.371Z,94639.41
2022-11-19T00:33:19.893Z,94647.16
2022-11-19T00:35:49.320Z,94634.44
2022-11-19T00:38:18.732Z,94639.63
2022-11-19T00:40:48.110Z,94651.34
2022-11-19T00:43:35.210Z,94643.97
2022-11-19T00:46:07.716Z,94643.13
2022-11-19T00:48:38.217Z,94648.69
2022-11-19T00:51:09.506Z,94648.13
2022-11-19T00:53:39.445Z,94647.63
2022-11-19T00:56:13.215Z,94650.34
2022-11-19T00:58:44.158Z,94648.00
2022-11-19T01:01:17.678Z,94647.13
2022-11-19T01:03:47.131Z,94650.34
2022-11-19T01:06:20.545Z,94646.09
2022-11-19T01:08:51.992Z,94653.63
2022-11-19T01:11:25.004Z,94647.50
2022-11-19T01:13:55.348Z,94645.06
2022-11-19T01:16:30.091Z,94643.41
2022-11-19T01:18:59.904Z,94651.50
2022-11-19T01:21:33.831Z,94655.53
2022-11-19T01:24:05.619Z,94654.78
2022-11-19T01:26:35.122Z,94661.41
2022-11-19T01:29:04.830Z,94659.50
2022-11-19T01:31:35.694Z,94668.09
2022-11-19T01:34:05.332Z,94673.97
2022-11-19T01:36:34.778Z,94664.94
2022-11-19T01:39:04.900Z,94663.13
2022-11-19T01:41:34.870Z,94667.41
2022-11-19T01:44:07.555Z,94666.81
2022-11-19T01:46:39.804Z,94661.22
2022-11-19T01:49:15.474Z,94662.81
2022-11-19T01:51:52.372Z,94662.56
2022-11-19T01:54:28.334Z,94661.22
2022-11-19T01:57:04.934Z,94654.25
2022-11-19T01:59:36.136Z,94671.56
2022-11-19T02:02:07.511Z,94663.53
2022-11-19T02:04:37.615Z,94665.38
2022-11-19T02:07:08.839Z,94665.94
2022-11-19T02:09:41.813Z,94662.47
2022-11-19T02:12:26.360Z,94669.91
2022-11-19T02:15:28.305Z,94669.91
2022-11-19T02:18:53.661Z,94670.41
2022-11-19T02:21:34.523Z,94672.56
2022-11-19T02:29:24.327Z,94664.88
2022-11-19T02:35:55.780Z,94668.00
2022-11-19T02:38:34.722Z,94675.69
2022-11-19T02:41:28.748Z,94673.53
2022-11-19T02:44:29.177Z,94667.31
2022-11-19T02:47:00.556Z,94676.94
2022-11-19T02:49:35.440Z,94682.53
2022-11-19T02:52:06.948Z,94673.19
2022-11-19T02:54:37.247Z,94677.16
2022-11-19T02:57:12.789Z,94672.09
2022-11-19T03:00:29.433Z,94681.38
2022-11-19T03:03:27.075Z,94685.97
2022-11-19T03:06:03.483Z,94680.09
2022-11-19T03:08:33.169Z,94695.00
2022-11-19T03:11:17.607Z,94675.63
2022-11-19T03:14:14.628Z,94690.88
2022-11-19T03:16:52.379Z,94682.19
2022-11-19T03:19:34.384Z,94686.66
2022-11-19T03:22:14.211Z,94686.34
2022-11-19T03:24:48.543Z,94695.91
2022-11-19T03:27:25.400Z,94703.84
2022-11-19T03:30:00.226Z,94704.91
2022-11-19T03:32:36.912Z,94713.72
2022-11-19T03:35:15.073Z,94715.56
2022-11-19T03:37:52.212Z,94716.31
2022-11-19T03:40:24.025Z,94716.06
2022-11-19T03:42:56.292Z,94721.34
2022-11-19T03:45:31.031Z,94724.81
2022-11-19T03:48:03.393Z,94721.72
2022-11-19T03:50:40.590Z,94713.66
2022-11-19T03:53:11.383Z,94722.44
2022-11-19T03:55:48.509Z,94728.84
2022-11-19T03:58:18.227Z,94719.97
2022-11-19T04:00:47.725Z,94715.28
2022-11-19T04:03:17.254Z,94721.16
2022-11-19T04:05:46.938Z,94714.22
2022-11-19T04:08:17.821Z,94716.09
2022-11-19T04:10:47.267Z,94712.91
2022-11-19T04:13:16.692Z,94717.97
2022-11-19T04:15:46.125Z,94718.38
2022-11-19T04:18:15.524Z,94721.03
2022-11-19T04:20:47.002Z,94724.44
2022-11-19T04:23:17.796Z,94730.09
2022-11-19T04:25:47.796Z,94730.03
2022-11-19T04:28:17.207Z,94728.09
2022-11-19T04:30:46.627Z,94734.19
2022-11-19T04:33:16.218Z,94727.78
2022-11-19T04:35:46.750Z,94728.72
2022-11-19T04:38:17.556Z,94728.22
2022-11-19T04:40:48.509Z,94728.41
2022-11-19T04:43:18.007Z,94726.41
2022-11-19T04:45:47.967Z,94732.75
2022-11-19T04:48:17.389Z,94735.97
2022-11-19T04:50:46.917Z,94735.41
2022-11-19T04:53:17.781Z,94731.13
2022-11-19T04:55:47.269Z,94733.28
2022-11-19T04:58:16.976Z,94744.50
2022-11-19T05:00:46.398Z,94724.81
2022-11-19T05:03:16.108Z,94735.56
2022-11-19T05:05:45.880Z,94731.34
2022-11-19T05:08:16.789Z,94745.69
2022-11-19T05:10:46.636Z,94737.69
2022-11-19T05:13:16.106Z,94744.31
2022-11-19T05:15:45.623Z,94744.06
2022-11-19T05:18:15.776Z,94738.19
2022-11-19T05:20:45.453Z,94745.94
2022-11-19T05:23:14.882Z,94739.28
2022-11-19T05:25:45.718Z,94741.91
2022-11-19T05:28:15.183Z,94743.75
2022-11-19T05:30:44.700Z,94742.22
2022-11-19T05:33:14.173Z,94745.31
2022-11-19T05:35:43.880Z,94745.50
2022-11-19T05:38:13.323Z,94735.84
2022-11-19T05:40:46.469Z,94737.44
2022-11-19T05:43:15.972Z,94740.06
2022-11-19T05:45:45.429Z,94737.38
2022-11-19T05:48:14.864Z,94735.25
2022-11-19T05:50:44.574Z,94744.03
2022-11-19T05:53:14.035Z,94741.38
2022-11-19T05:55:43.444Z,94737.59
2022-11-19T05:58:14.544Z,94732.78
2022-11-19T06:00:44.062Z,94734.31
2022-11-19T06:03:13.535Z,94743.91
2022-11-19T06:05:43.105Z,94745.03
2022-11-19T06:08:12.919Z,94743.91
2022-11-19T06:10:42.480Z,94748.44
2022-11-19T06:13:13.472Z,94746.81
2022-11-19T06:15:43.004Z,94748.94
2022-11-19T06:18:12.676Z,94747.00
2022-11-19T06:20:42.318Z,94752.00
2022-11-19T06:23:11.820Z,94757.59
2022-11-19T06:25:41.702Z,94761.06
2022-11-19T06:28:11.345Z,94767.66
2022-11-19T06:30:42.218Z,94759.16
2022-11-19T06:33:11.608Z,94770.28
2022-11-19T06:35:41.093Z,94762.56
2022-11-19T06:38:10.578Z,94764.91
2022-11-19T06:40:39.957Z,94768.59
2022-11-19T06:43:09.340Z,94768.84
2022-11-19T06:45:39.231Z,94766.44
2022-11-19T06:48:10.102Z,94780.53
2022-11-19T06:50:39.589Z,94782.16
2022-11-19T06:53:09.089Z,94781.34
2022-11-19T06:55:38.524Z,94780.53
2022-11-19T06:58:09.073Z,94790.69
2022-11-19T07:00:38.557Z,94789.66
2022-11-19T07:03:09.547Z,94793.94
2022-11-19T07:05:39.006Z,94796.34
2022-11-19T07:08:08.653Z,94792.38
2022-11-19T07:10:38.136Z,94789.47
2022-11-19T07:13:07.604Z,94791.91
2022-11-19T07:15:37.037Z,94787.91
2022-11-19T07:18:07.116Z,94798.88
2022-11-19T07:20:38.297Z,94796.53
2022-11-19T07:23:11.745Z,94798.47
2022-11-19T07:25:41.158Z,94791.91
2022-11-19T07:28:10.653Z,94802.63
2022-11-19T07:30:40.203Z,94803.97
2022-11-19T07:33:09.624Z,94804.03
2022-11-19T07:35:40.987Z,94805.41
2022-11-19T07:38:10.603Z,94808.94
2022-11-19T07:40:40.009Z,94813.28
2022-11-19T07:43:08.582Z,94809.63
2022-11-19T07:45:39.414Z,94815.34
2022-11-19T07:48:08.855Z,94818.06
2022-11-19T07:50:40.956Z,94821.34
2022-11-19T07:53:10.686Z,94825.72
2022-11-19T07:55:40.412Z,94821.56
2022-11-19T07:58:09.999Z,94829.13
2022-11-19T08:00:39.418Z,94815.31
2022-11-19T08:03:11.168Z,94825.03
2022-11-19T08:05:42.576Z,94820.78
2022-11-19T08:08:12.006Z,94821.09
2022-11-19T08:10:41.449Z,94823.81
2022-11-19T08:13:10.909Z,94818.78
2022-11-19T08:15:40.435Z,94820.16
2022-11-19T08:18:13.938Z,94829.50
2022-11-19T08:20:48.279Z,94821.00
2022-11-19T08:23:17.834Z,94830.66
2022-11-19T08:25:48.214Z,94826.41
2022-11-19T08:28:18.379Z,94834.44
2022-11-19T08:30:47.845Z,94824.88
2022-11-19T08:33:17.481Z,94822.25
2022-11-19T08:35:48.520Z,94831.09
2022-11-19T08:38:18.078Z,94830.03
2022-11-19T08:41:13.715Z,94825.75
2022-11-19T08:43:42.606Z,94832.25
2022-11-19T08:46:12.281Z,94830.09
2022-11-19T08:48:41.798Z,94824.84
2022-11-19T08:51:14.748Z,94825.59
2022-11-19T08:53:44.322Z,94825.41
2022-11-19T08:56:17.867Z,94832.09
2022-11-19T08:58:48.092Z,94831.31
2022-11-19T09:01:20.605Z,94830.84
2022-11-19T09:03:50.142Z,94832.25
2022-11-19T09:06:21.084Z,94828.81
2022-11-19T09:08:50.623Z,94833.63
2022-11-19T09:11:22.295Z,94829.38
2022-11-19T09:13:51.883Z,94827.53
2022-11-19T09:16:21.432Z,94828.03
2022-11-19T09:18:50.944Z,94829.69
2022-11-19T09:21:21.880Z,94834.00
2022-11-19T09:23:51.333Z,94841.19
2022-11-19T09:26:21.229Z,94848.69
2022-11-19T09:28:51.652Z,94851.34
2022-11-19T09:31:22.317Z,94862.91
2022-11-19T09:33:54.981Z,94858.41
2022-11-19T09:36:26.011Z,94856.00
2022-11-19T09:38:59.171Z,94854.97
2022-11-19T09:41:47.364Z,94856.06
2022-11-19T09:44:39.994Z,94851.22
2022-11-19T09:47:30.065Z,94854.72
2022-11-19T09:50:15.207Z,94854.72
2022-11-19T09:52:50.831Z,94852.31
2022-11-19T09:55:27.652Z,94855.78
2022-11-19T09:58:00.102Z,94857.16
2022-11-19T10:00:32.608Z,94850.97
2022-11-19T10:03:13.405Z,94846.16
2022-11-19T10:06:12.103Z,94852.59
2022-11-19T10:09:16.211Z,94851.53
2022-11-19T10:11:57.221Z,94853.41
2022-11-19T10:14:59.480Z,94862.25
2022-11-19T10:17:45.213Z,94865.44
2022-11-19T10:20:55.915Z,94869.22
2022-11-19T10:23:36.962Z,94867.06
2022-11-19T10:26:14.237Z,94867.59
2022-11-19T10:28:55.248Z,94867.06
2022-11-19T10:31:34.681Z,94864.66
2022-11-19T10:34:17.844Z,94863.28
2022-11-19T10:36:52.652Z,94863.00
2022-11-19T10:39:33.642Z,94853.38
2022-11-19T10:42:19.017Z,94848.56
2022-11-19T10:44:55.851Z,94860.59
2022-11-19T10:47:35.840Z,94859.81
2022-11-19T10:50:11.150Z,94860.06
2022-11-19T10:52:45.355Z,94861.94
2022-11-19T10:55:25.523Z,94861.38
2022-11-19T10:58:13.457Z,94858.16
2022-11-19T11:00:44.091Z,94863.28
2022-11-19T11:03:25.743Z,94871.28
2022-11-19T11:06:05.123Z,94873.09
2022-11-19T11:08:48.525Z,94871.09
2022-11-19T11:11:48.892Z,94861.56
2022-11-19T11:14:40.049Z,94858.28
2022-11-19T11:17:23.865Z,94858.50
2022-11-19T11:20:07.900Z,94856.81
2022-11-19T11:22:38.084Z,94861.91
2022-11-19T11:25:21.999Z,94844.44
2022-11-19T11:28:08.836Z,94848.63
2022-11-19T11:30:53.329Z,94847.03
2022-11-19T11:33:37.708Z,94835.00
2022-11-19T11:36:12.101Z,94834.78
2022-11-19T11:38:45.455Z,94841.47
2022-11-19T11:42:03.398Z,94835.84
2022-11-19T11:44:17.767Z,94836.19
2022-11-19T11:46:52.614Z,94841.53
2022-11-19T11:49:29.399Z,94837.59
2022-11-19T11:52:22.447Z,94832.91
2022-11-19T11:54:59.555Z,94835.31
2022-11-19T11:57:33.073Z,94840.13
2022-11-19T12:00:26.093Z,94838.88
2022-11-19T12:03:04.674Z,94825.06
2022-11-19T12:05:52.405Z,94827.81
2022-11-19T12:08:47.168Z,94820.66
2022-11-19T12:11:26.372Z,94828.16
2022-11-19T12:14:04.318Z,94823.66
2022-11-19T12:16:54.861Z,94814.84
2022-11-19T12:19:46.048Z,94812.72
2022-11-19T12:22:32.214Z,94816.72
2022-11-19T12:25:29.117Z,94800.41
2022-11-19T12:28:33.185Z,94802.28
2022-11-19T12:31:15.382Z,94806.28
2022-11-19T12:34:40.133Z,94799.88
2022-11-19T12:37:33.444Z,94787.81
2022-11-19T12:40:21.876Z,94800.94
2022-11-19T12:43:04.367Z,94797.97
2022-11-19T12:45:44.413Z,94791.53
2022-11-19T12:48:42.852Z,94798.53
2022-11-19T12:51:29.092Z,94798.78
2022-11-19T12:54:30.311Z,94786.47
2022-11-19T12:57:28.117Z,94791.56
2022-11-19T13:00:16.246Z,94795.59
2022-11-19T13:03:05.587Z,94800.63
2022-11-19T13:05:48.193Z,94801.16
2022-11-19T13:08:30.030Z,94793.94
2022-11-19T13:11:11.366Z,94792.59
2022-11-19T13:13:46.459Z,94791.22
2022-11-19T13:16:19.864Z,94792.06
2022-11-19T13:18:54.097Z,94797.16
2022-11-19T13:21:34.740Z,94794.16
2022-11-19T13:24:22.160Z,94795.75
2022-11-19T13:26:52.909Z,94790.91
2022-11-19T13:29:37.033Z,94787.97
2022-11-19T13:32:18.954Z,94795.97
2022-11-19T13:35:11.348Z,94789.78
2022-11-19T13:37:58.210Z,94784.44
2022-11-19T13:40:38.289Z,94790.50
2022-11-19T13:43:32.948Z,94782.94
2022-11-19T13:46:26.973Z,94786.47
2022-11-19T13:49:03.801Z,94788.66
2022-11-19T13:51:40.539Z,94777.94
2022-11-19T13:54:22.484Z,94776.94
2022-11-19T13:56:57.536Z,94774.06
2022-11-19T13:59:35.024Z,94779.00
2022-11-19T14:02:39.942Z,94786.72
2022-11-19T14:06:00.423Z,94790.91
2022-11-19T14:08:52.661Z,94786.09
2022-11-19T14:11:49.877Z,94786.50
